sensor_id;sensor_type;location;lat;lon;timestamp;P1;durP1;ratioP1;P2;durP2;ratioP2
14939;SDS011;11825;51.898;8.202;2023-07-31T00:03:08;1.80;;;1.47;;
14939;SDS011;11825;51.898;8.202;2023-07-31T00:08:20;3.33;;;1.40;;
14939;SDS011;11825;51.898;8.202;2023-07-31T00:13:23;1.97;;;1.87;;
14939;SDS011;11825;51.898;8.202;2023-07-31T00:18:32;2.00;;;1.70;;
14939;SDS011;11825;51.898;8.202;2023-07-31T00:23:36;2.93;;;2.30;;
14939;SDS011;11825;51.898;8.202;2023-07-31T00:28:41;1.73;;;1.60;;
14939;SDS011;11825;51.898;8.202;2023-07-31T00:33:48;1.97;;;1.87;;
14939;SDS011;11825;51.898;8.202;2023-07-31T00:39:00;2.17;;;2.00;;
14939;SDS011;11825;51.898;8.202;2023-07-31T00:44:04;1.70;;;1.60;;
14939;SDS011;11825;51.898;8.202;2023-07-31T00:49:14;2.23;;;1.93;;
14939;SDS011;11825;51.898;8.202;2023-07-31T00:54:22;3.17;;;2.40;;
14939;SDS011;11825;51.898;8.202;2023-07-31T00:59:27;2.90;;;2.27;;
14939;SDS011;11825;51.898;8.202;2023-07-31T01:04:37;3.30;;;2.60;;
14939;SDS011;11825;51.898;8.202;2023-07-31T01:15:03;4.87;;;2.83;;
14939;SDS011;11825;51.898;8.202;2023-07-31T01:20:26;4.03;;;3.17;;
14939;SDS011;11825;51.898;8.202;2023-07-31T01:30:57;6.40;;;3.80;;
14939;SDS011;11825;51.898;8.202;2023-07-31T01:36:03;5.33;;;3.33;;
14939;SDS011;11825;51.898;8.202;2023-07-31T01:41:10;3.87;;;2.73;;
14939;SDS011;11825;51.898;8.202;2023-07-31T01:46:17;5.47;;;2.57;;
14939;SDS011;11825;51.898;8.202;2023-07-31T01:51:24;4.00;;;2.53;;
14939;SDS011;11825;51.898;8.202;2023-07-31T01:56:32;2.93;;;1.50;;
14939;SDS011;11825;51.898;8.202;2023-07-31T02:01:42;2.17;;;1.57;;
14939;SDS011;11825;51.898;8.202;2023-07-31T02:06:44;1.40;;;1.30;;
14939;SDS011;11825;51.898;8.202;2023-07-31T02:17:03;1.70;;;1.03;;
14939;SDS011;11825;51.898;8.202;2023-07-31T02:22:09;2.37;;;1.20;;
14939;SDS011;11825;51.898;8.202;2023-07-31T02:27:16;1.70;;;1.60;;
14939;SDS011;11825;51.898;8.202;2023-07-31T02:32:32;4.50;;;1.20;;
14939;SDS011;11825;51.898;8.202;2023-07-31T02:37:35;3.30;;;2.00;;
14939;SDS011;11825;51.898;8.202;2023-07-31T02:42:46;4.70;;;2.87;;
14939;SDS011;11825;51.898;8.202;2023-07-31T02:47:59;8.63;;;7.13;;
14939;SDS011;11825;51.898;8.202;2023-07-31T02:53:09;13.10;;;8.13;;
14939;SDS011;11825;51.898;8.202;2023-07-31T02:58:11;11.50;;;9.90;;
14939;SDS011;11825;51.898;8.202;2023-07-31T03:03:15;12.87;;;11.27;;
14939;SDS011;11825;51.898;8.202;2023-07-31T03:08:19;13.30;;;10.20;;
14939;SDS011;11825;51.898;8.202;2023-07-31T03:13:26;15.37;;;10.63;;
14939;SDS011;11825;51.898;8.202;2023-07-31T03:18:33;11.37;;;10.17;;
14939;SDS011;11825;51.898;8.202;2023-07-31T03:23:38;10.73;;;8.83;;
14939;SDS011;11825;51.898;8.202;2023-07-31T03:28:46;15.13;;;9.03;;
14939;SDS011;11825;51.898;8.202;2023-07-31T03:39:45;10.83;;;8.90;;
14939;SDS011;11825;51.898;8.202;2023-07-31T03:44:50;15.23;;;10.30;;
14939;SDS011;11825;51.898;8.202;2023-07-31T03:49:52;12.97;;;9.23;;
14939;SDS011;11825;51.898;8.202;2023-07-31T03:55:13;15.50;;;8.43;;
14939;SDS011;11825;51.898;8.202;2023-07-31T04:00:15;13.80;;;8.87;;
14939;SDS011;11825;51.898;8.202;2023-07-31T04:05:16;14.83;;;9.37;;
14939;SDS011;11825;51.898;8.202;2023-07-31T04:10:20;12.33;;;7.77;;
14939;SDS011;11825;51.898;8.202;2023-07-31T04:15:32;12.80;;;7.50;;
14939;SDS011;11825;51.898;8.202;2023-07-31T04:20:37;14.50;;;8.63;;
14939;SDS011;11825;51.898;8.202;2023-07-31T04:25:44;16.67;;;9.07;;
14939;SDS011;11825;51.898;8.202;2023-07-31T04:30:50;16.73;;;8.83;;
14939;SDS011;11825;51.898;8.202;2023-07-31T04:35:54;13.97;;;8.50;;
14939;SDS011;11825;51.898;8.202;2023-07-31T04:40:58;14.37;;;7.83;;
14939;SDS011;11825;51.898;8.202;2023-07-31T04:46:03;8.87;;;6.47;;
14939;SDS011;11825;51.898;8.202;2023-07-31T04:51:10;16.10;;;7.90;;
14939;SDS011;11825;51.898;8.202;2023-07-31T04:56:14;14.33;;;7.53;;
14939;SDS011;11825;51.898;8.202;2023-07-31T05:01:19;7.97;;;6.70;;
14939;SDS011;11825;51.898;8.202;2023-07-31T05:06:23;11.80;;;6.73;;
14939;SDS011;11825;51.898;8.202;2023-07-31T05:11:30;8.70;;;6.27;;
14939;SDS011;11825;51.898;8.202;2023-07-31T05:16:38;12.20;;;7.37;;
14939;SDS011;11825;51.898;8.202;2023-07-31T05:21:43;13.70;;;6.67;;
14939;SDS011;11825;51.898;8.202;2023-07-31T05:26:50;12.90;;;6.30;;
14939;SDS011;11825;51.898;8.202;2023-07-31T05:31:54;7.63;;;5.33;;
14939;SDS011;11825;51.898;8.202;2023-07-31T05:37:03;7.20;;;5.03;;
14939;SDS011;11825;51.898;8.202;2023-07-31T05:42:11;12.27;;;6.60;;
14939;SDS011;11825;51.898;8.202;2023-07-31T05:47:14;11.13;;;6.37;;
14939;SDS011;11825;51.898;8.202;2023-07-31T05:52:26;9.73;;;6.50;;
14939;SDS011;11825;51.898;8.202;2023-07-31T05:57:35;11.10;;;6.40;;
14939;SDS011;11825;51.898;8.202;2023-07-31T06:02:39;7.43;;;5.13;;
14939;SDS011;11825;51.898;8.202;2023-07-31T06:07:43;10.73;;;5.47;;
14939;SDS011;11825;51.898;8.202;2023-07-31T06:12:45;8.70;;;5.47;;
14939;SDS011;11825;51.898;8.202;2023-07-31T06:17:47;8.00;;;5.70;;
14939;SDS011;11825;51.898;8.202;2023-07-31T06:23:11;8.00;;;5.00;;
14939;SDS011;11825;51.898;8.202;2023-07-31T06:28:15;12.50;;;6.17;;
14939;SDS011;11825;51.898;8.202;2023-07-31T06:33:22;8.93;;;5.50;;
14939;SDS011;11825;51.898;8.202;2023-07-31T06:38:26;10.23;;;6.10;;
14939;SDS011;11825;51.898;8.202;2023-07-31T06:43:31;8.63;;;4.90;;
14939;SDS011;11825;51.898;8.202;2023-07-31T06:48:41;10.57;;;6.00;;
14939;SDS011;11825;51.898;8.202;2023-07-31T06:53:57;12.23;;;6.33;;
14939;SDS011;11825;51.898;8.202;2023-07-31T06:59:09;11.07;;;6.60;;
14939;SDS011;11825;51.898;8.202;2023-07-31T07:58:56;7.17;;;5.00;;
14939;SDS011;11825;51.898;8.202;2023-07-31T08:04:06;9.67;;;5.63;;
14939;SDS011;11825;51.898;8.202;2023-07-31T08:09:11;7.97;;;4.97;;
14939;SDS011;11825;51.898;8.202;2023-07-31T08:14:21;7.23;;;5.33;;
14939;SDS011;11825;51.898;8.202;2023-07-31T08:38:05;6.40;;;5.30;;
14939;SDS011;11825;51.898;8.202;2023-07-31T08:43:26;9.47;;;6.57;;
14939;SDS011;11825;51.898;8.202;2023-07-31T08:48:37;7.03;;;6.17;;
14939;SDS011;11825;51.898;8.202;2023-07-31T08:53:45;9.67;;;5.93;;
14939;SDS011;11825;51.898;8.202;2023-07-31T09:04:46;4.53;;;4.13;;
14939;SDS011;11825;51.898;8.202;2023-07-31T09:15:59;5.37;;;4.20;;
14939;SDS011;11825;51.898;8.202;2023-07-31T09:21:34;4.00;;;3.17;;
14939;SDS011;11825;51.898;8.202;2023-07-31T09:56:51;4.70;;;2.40;;
14939;SDS011;11825;51.898;8.202;2023-07-31T10:12:38;3.23;;;2.70;;
14939;SDS011;11825;51.898;8.202;2023-07-31T10:34:36;1.90;;;1.77;;
14939;SDS011;11825;51.898;8.202;2023-07-31T10:56:23;4.47;;;2.43;;
14939;SDS011;11825;51.898;8.202;2023-07-31T11:23:07;2.37;;;2.13;;
14939;SDS011;11825;51.898;8.202;2023-07-31T11:34:57;2.83;;;2.37;;
14939;SDS011;11825;51.898;8.202;2023-07-31T11:52:17;1.73;;;1.60;;
14939;SDS011;11825;51.898;8.202;2023-07-31T11:57:35;2.00;;;1.90;;
14939;SDS011;11825;51.898;8.202;2023-07-31T12:20:24;1.90;;;1.23;;
14939;SDS011;11825;51.898;8.202;2023-07-31T13:01:26;4.53;;;3.57;;
14939;SDS011;11825;51.898;8.202;2023-07-31T13:06:28;3.97;;;3.53;;
14939;SDS011;11825;51.898;8.202;2023-07-31T13:11:30;4.23;;;2.73;;
14939;SDS011;11825;51.898;8.202;2023-07-31T13:16:32;4.70;;;4.30;;
14939;SDS011;11825;51.898;8.202;2023-07-31T13:21:34;4.30;;;3.90;;
14939;SDS011;11825;51.898;8.202;2023-07-31T13:26:37;5.70;;;5.10;;
14939;SDS011;11825;51.898;8.202;2023-07-31T13:31:39;4.23;;;3.10;;
14939;SDS011;11825;51.898;8.202;2023-07-31T13:42:05;4.67;;;3.20;;
14939;SDS011;11825;51.898;8.202;2023-07-31T13:47:16;3.90;;;3.57;;
14939;SDS011;11825;51.898;8.202;2023-07-31T14:04:52;3.00;;;2.80;;
14939;SDS011;11825;51.898;8.202;2023-07-31T14:10:37;3.30;;;3.00;;
14939;SDS011;11825;51.898;8.202;2023-07-31T14:15:43;4.33;;;3.13;;
14939;SDS011;11825;51.898;8.202;2023-07-31T14:21:09;3.40;;;3.10;;
14939;SDS011;11825;51.898;8.202;2023-07-31T14:32:11;3.00;;;2.60;;
14939;SDS011;11825;51.898;8.202;2023-07-31T14:48:09;4.67;;;3.00;;
14939;SDS011;11825;51.898;8.202;2023-07-31T14:58:51;2.07;;;1.83;;
14939;SDS011;11825;51.898;8.202;2023-07-31T15:09:52;3.97;;;2.53;;
14939;SDS011;11825;51.898;8.202;2023-07-31T15:15:08;2.73;;;2.40;;
14939;SDS011;11825;51.898;8.202;2023-07-31T15:26:34;3.57;;;2.27;;
14939;SDS011;11825;51.898;8.202;2023-07-31T15:31:43;4.60;;;2.43;;
14939;SDS011;11825;51.898;8.202;2023-07-31T15:42:05;3.27;;;2.37;;
14939;SDS011;11825;51.898;8.202;2023-07-31T15:47:10;2.93;;;2.43;;
14939;SDS011;11825;51.898;8.202;2023-07-31T15:52:22;4.30;;;2.40;;
14939;SDS011;11825;51.898;8.202;2023-07-31T16:09:27;2.73;;;2.47;;
14939;SDS011;11825;51.898;8.202;2023-07-31T16:14:41;3.67;;;2.90;;
14939;SDS011;11825;51.898;8.202;2023-07-31T16:19:43;2.77;;;2.57;;
14939;SDS011;11825;51.898;8.202;2023-07-31T16:24:46;5.23;;;2.80;;
14939;SDS011;11825;51.898;8.202;2023-07-31T16:29:48;4.33;;;3.23;;
14939;SDS011;11825;51.898;8.202;2023-07-31T16:34:52;4.53;;;2.80;;
14939;SDS011;11825;51.898;8.202;2023-07-31T16:39:54;3.97;;;3.50;;
14939;SDS011;11825;51.898;8.202;2023-07-31T16:44:58;4.33;;;3.77;;
14939;SDS011;11825;51.898;8.202;2023-07-31T16:50:01;3.50;;;2.90;;
14939;SDS011;11825;51.898;8.202;2023-07-31T16:55:06;6.50;;;4.13;;
14939;SDS011;11825;51.898;8.202;2023-07-31T17:00:08;9.07;;;4.47;;
14939;SDS011;11825;51.898;8.202;2023-07-31T17:05:15;4.80;;;4.17;;
14939;SDS011;11825;51.898;8.202;2023-07-31T17:10:17;4.40;;;3.90;;
14939;SDS011;11825;51.898;8.202;2023-07-31T17:27:14;5.27;;;4.53;;
14939;SDS011;11825;51.898;8.202;2023-07-31T17:37:39;6.67;;;3.83;;
14939;SDS011;11825;51.898;8.202;2023-07-31T17:42:41;5.43;;;4.80;;
14939;SDS011;11825;51.898;8.202;2023-07-31T18:03:57;4.40;;;3.57;;
14939;SDS011;11825;51.898;8.202;2023-07-31T18:25:31;6.13;;;4.13;;
14939;SDS011;11825;51.898;8.202;2023-07-31T18:30:34;6.07;;;4.97;;
14939;SDS011;11825;51.898;8.202;2023-07-31T18:35:39;7.97;;;3.80;;
14939;SDS011;11825;51.898;8.202;2023-07-31T18:40:40;5.13;;;3.40;;
14939;SDS011;11825;51.898;8.202;2023-07-31T18:45:42;4.73;;;3.97;;
14939;SDS011;11825;51.898;8.202;2023-07-31T18:56:14;3.90;;;3.30;;
14939;SDS011;11825;51.898;8.202;2023-07-31T19:01:36;6.60;;;4.00;;
14939;SDS011;11825;51.898;8.202;2023-07-31T19:17:52;5.17;;;3.70;;
14939;SDS011;11825;51.898;8.202;2023-07-31T19:22:56;4.90;;;4.27;;
14939;SDS011;11825;51.898;8.202;2023-07-31T19:27:59;13.20;;;6.97;;
14939;SDS011;11825;51.898;8.202;2023-07-31T19:49:26;6.57;;;2.77;;
14939;SDS011;11825;51.898;8.202;2023-07-31T19:54:46;3.00;;;2.60;;
14939;SDS011;11825;51.898;8.202;2023-07-31T19:59:48;2.63;;;2.43;;
14939;SDS011;11825;51.898;8.202;2023-07-31T20:05:14;4.07;;;2.00;;
14939;SDS011;11825;51.898;8.202;2023-07-31T20:10:16;3.50;;;2.17;;
14939;SDS011;11825;51.898;8.202;2023-07-31T20:15:22;5.50;;;2.80;;
14939;SDS011;11825;51.898;8.202;2023-07-31T20:20:43;2.47;;;2.17;;
14939;SDS011;11825;51.898;8.202;2023-07-31T20:25:48;2.00;;;1.70;;
14939;SDS011;11825;51.898;8.202;2023-07-31T20:30:55;2.40;;;2.20;;
14939;SDS011;11825;51.898;8.202;2023-07-31T20:36:02;2.07;;;1.83;;
14939;SDS011;11825;51.898;8.202;2023-07-31T20:47:57;3.60;;;1.70;;
14939;SDS011;11825;51.898;8.202;2023-07-31T20:58:42;1.73;;;1.50;;
14939;SDS011;11825;51.898;8.202;2023-07-31T21:03:44;2.27;;;1.70;;
14939;SDS011;11825;51.898;8.202;2023-07-31T21:14:25;1.43;;;1.10;;
14939;SDS011;11825;51.898;8.202;2023-07-31T21:19:29;2.87;;;1.63;;
14939;SDS011;11825;51.898;8.202;2023-07-31T21:24:34;2.27;;;1.67;;
14939;SDS011;11825;51.898;8.202;2023-07-31T21:29:35;2.30;;;1.00;;
14939;SDS011;11825;51.898;8.202;2023-07-31T21:34:37;1.17;;;1.07;;
14939;SDS011;11825;51.898;8.202;2023-07-31T21:39:44;1.50;;;1.40;;
14939;SDS011;11825;51.898;8.202;2023-07-31T21:44:48;1.33;;;1.23;;
14939;SDS011;11825;51.898;8.202;2023-07-31T21:50:13;1.53;;;1.43;;
14939;SDS011;11825;51.898;8.202;2023-07-31T21:55:18;2.77;;;1.77;;
14939;SDS011;11825;51.898;8.202;2023-07-31T22:00:21;2.80;;;2.27;;
14939;SDS011;11825;51.898;8.202;2023-07-31T22:05:48;2.27;;;1.70;;
14939;SDS011;11825;51.898;8.202;2023-07-31T22:11:08;4.57;;;1.93;;
14939;SDS011;11825;51.898;8.202;2023-07-31T22:16:10;2.53;;;1.70;;
14939;SDS011;11825;51.898;8.202;2023-07-31T22:21:22;3.63;;;2.17;;
14939;SDS011;11825;51.898;8.202;2023-07-31T22:26:29;3.30;;;1.77;;
14939;SDS011;11825;51.898;8.202;2023-07-31T22:31:31;2.90;;;1.80;;
14939;SDS011;11825;51.898;8.202;2023-07-31T22:36:33;3.50;;;2.07;;
14939;SDS011;11825;51.898;8.202;2023-07-31T22:41:35;2.30;;;1.97;;
14939;SDS011;11825;51.898;8.202;2023-07-31T22:46:36;1.93;;;1.83;;
14939;SDS011;11825;51.898;8.202;2023-07-31T22:51:39;1.50;;;1.40;;
14939;SDS011;11825;51.898;8.202;2023-07-31T22:56:40;1.40;;;1.20;;
14939;SDS011;11825;51.898;8.202;2023-07-31T23:01:43;1.33;;;1.23;;
14939;SDS011;11825;51.898;8.202;2023-07-31T23:06:45;3.60;;;0.87;;
14939;SDS011;11825;51.898;8.202;2023-07-31T23:11:46;0.97;;;0.93;;
14939;SDS011;11825;51.898;8.202;2023-07-31T23:16:50;1.20;;;0.97;;
14939;SDS011;11825;51.898;8.202;2023-07-31T23:21:52;1.50;;;1.40;;
14939;SDS011;11825;51.898;8.202;2023-07-31T23:26:59;1.40;;;1.30;;
14939;SDS011;11825;51.898;8.202;2023-07-31T23:32:04;1.83;;;1.43;;
14939;SDS011;11825;51.898;8.202;2023-07-31T23:37:14;2.27;;;1.77;;
14939;SDS011;11825;51.898;8.202;2023-07-31T23:42:25;1.60;;;1.50;;
14939;SDS011;11825;51.898;8.202;2023-07-31T23:47:35;1.70;;;1.60;;
14939;SDS011;11825;51.898;8.202;2023-07-31T23:52:42;1.50;;;1.40;;
14939;SDS011;11825;51.898;8.202;2023-07-31T23:57:45;1.93;;;1.20;;
